Latest Weather Observations for Shay Gap

IDW60801

Issued at 9:35 am WST Monday 15 September 2014 (issued every 30 minutes, with the page automatically refreshed every 10 minutes)

About weather observations | Map of weather stations | Latest weather observations for WA | Other Formats
Station Details ID: 504045 Name: SHAY GAP Lat: -20.43 Lon: 120.13 Height: 173.83 m
Data from the previous 72 hours. | See also: Recent months for locations in Western Australia
Date/Time
WST
Temp
°C
App
Temp
°C
Dew
Point
Rel
Hum
%
Delta-T
°C
Wind Press
QNH
hPa
Press
MSL
hPa
Rain
since 9 am
mm
Dir
 
Spd
km/h
Gust
km/h
Spd
kts
Gust
kts
15/09:30am 32.6 29.2 6.0 19 14.4 ESE 13 17 7 9 1013.8 1012.9 0.0
15/09:00am 31.0 28.2 6.8 22 13.1 ESE 11 17 6 9 1013.9 1013.0 0.0
15/08:30am 28.3 26.0 7.5 27 11.3 SSE 9 15 5 8 1013.9 1013.0 0.0
15/08:00am 26.4 23.8 7.9 31 10.0 SE 11 13 6 7 1013.8 1012.9 0.0
15/07:30am 24.4 21.4 7.5 34 9.0 SSE 13 17 7 9 1013.5 1012.6 0.0
15/07:00am 21.5 18.7 8.4 43 6.9 SSE 13 15 7 8 1013.3 1012.4 0.0
15/06:30am 19.3 16.1 6.8 44 6.3 SSE 13 17 7 9 1013.0 1012.1 0.0
15/06:00am 18.3 15.0 6.2 45 6.0 SSE 13 15 7 8 1012.8 1011.9 0.0
15/05:30am 17.7 14.3 5.9 46 5.8 SSE 13 15 7 8 1012.6 1011.7 0.0
15/05:00am 17.9 15.2 5.8 45 6.0 SE 9 13 5 7 1012.5 1011.6 0.0
15/04:30am 19.6 18.3 6.0 41 6.8 N 2 9 1 5 1012.3 1011.4 0.0
15/04:00am 19.5 17.3 5.2 39 7.0 N 6 7 3 4 1012.0 1011.1 0.0
15/03:30am 20.6 17.7 4.6 35 7.8 N 9 11 5 6 1012.0 1011.1 0.0
15/03:00am 21.0 17.8 5.0 35 7.9 N 11 13 6 7 1012.0 1011.1 0.0
15/02:30am 21.5 19.0 5.0 34 8.2 NE 7 9 4 5 1012.1 1011.2 0.0
15/02:00am 22.1 19.4 5.5 34 8.4 N 9 11 5 6 1012.2 1011.3 0.0
15/01:30am 21.7 19.0 5.6 35 8.1 N 9 9 5 5 1012.3 1011.4 0.0
15/01:00am 22.0 19.6 5.4 34 8.3 N 7 9 4 5 1012.3 1011.4 0.0
15/12:30am 23.1 20.4 5.5 32 8.9 NE 9 11 5 6 1012.7 1011.8 0.0
15/12:00am 22.7 20.6 6.5 35 8.3 NE 7 9 4 5 1013.1 1012.2 0.0
 
Date/Time
WST
Temp
°C
App
Temp
°C
Dew
Point
Rel
Hum
%
Delta-T
°C
Wind Press
QNH
hPa
Press
MSL
hPa
Rain
since 9 am
mm
Dir
 
Spd
km/h
Gust
km/h
Spd
kts
Gust
kts
14/11:30pm 22.2 20.0 6.0 35 8.2 NNW 7 11 4 6 1013.3 1012.4 0.0
14/11:00pm 22.8 20.7 5.7 33 8.7 WNW 6 7 3 4 1013.4 1012.5 0.0
14/10:30pm 23.8 22.7 5.2 30 9.4 CALM 0 4 0 2 1013.6 1012.7 0.0
14/10:00pm 24.6 22.3 4.9 28 10.0 NNE 6 9 3 5 1013.8 1012.9 0.0
14/09:30pm 25.2 23.1 3.8 25 10.7 N 4 7 2 4 1013.8 1012.9 0.0
14/09:00pm 26.7 23.1 3.2 22 11.7 NNE 11 15 6 8 1013.7 1012.8 0.0
14/08:30pm 27.6 23.6 2.6 20 12.4 NNE 13 17 7 9 1013.5 1012.6 0.0
14/08:00pm 28.7 24.6 2.1 18 13.2 WSW 13 15 7 8 1013.1 1012.2 0.0
14/07:30pm 29.7 25.2 2.1 17 13.7 W 15 17 8 9 1012.8 1011.9 0.0
14/07:00pm 30.8 26.3 2.1 16 14.4 W 15 17 8 9 1012.5 1011.6 0.0
14/06:30pm 32.0 27.3 1.2 14 15.3 WNW 15 17 8 9 1012.1 1011.2 0.0
14/06:00pm 33.4 29.9 1.3 13 16.2 NNE 9 17 5 9 1011.8 1010.9 0.0
14/05:30pm 35.4 31.2 -0.8 10 17.8 ESE 11 15 6 8 1011.4 1010.5 0.0
14/05:00pm 36.6 32.7 -1.4 9 18.7 ESE 9 15 5 8 1011.2 1010.3 0.0
14/04:30pm 37.1 32.9 -1.0 9 18.9 E 11 17 6 9 1011.1 1010.2 0.0
14/04:00pm 37.2 33.0 -0.9 9 19.0 NNE 11 19 6 10 1010.9 1009.9 0.0
14/03:30pm 37.5 31.2 -0.7 9 19.1 ENE 22 28 12 15 1011.0 1010.1 0.0
14/03:00pm 37.5 33.3 -0.7 9 19.1 ESE 11 22 6 12 1011.0 1010.1 0.0
14/02:30pm 37.9 32.1 -0.4 9 19.3 E 20 35 11 19 1011.0 1010.1 0.0
14/02:00pm 37.4 32.8 -0.8 9 19.1 NNE 13 20 7 11 1011.3 1010.4 0.0
14/01:30pm 37.0 32.4 -1.1 9 18.9 SE 13 24 7 13 1011.6 1010.7 0.0
14/01:00pm 37.7 31.5 -0.6 9 19.2 E 22 28 12 15 1012.1 1011.2 0.0
14/12:30pm 37.4 31.7 -0.8 9 19.1 ENE 19 32 10 17 1012.4 1011.5 0.0
14/12:00pm 36.7 29.6 -1.3 9 18.7 ENE 26 35 14 19 1013.2 1012.3 0.0
14/11:30am 36.7 30.0 -1.3 9 18.7 E 24 39 13 21 1013.6 1012.7 0.0
14/11:16am 36.7 29.2 -1.3 9 18.7 E 28 48 15 26 1013.9 1013.0 0.0
14/11:00am 36.3 28.0 -1.6 9 18.5 ENE 32 39 17 21 1014.1 1013.2 0.0
14/10:30am 36.3 29.5 -1.6 9 18.5 ESE 24 39 13 21 1014.6 1013.7 0.0
14/10:00am 34.6 28.8 -1.4 10 17.5 ESE 19 24 10 13 1014.8 1013.9 0.0
14/09:30am 33.2 27.2 -1.2 11 16.6 SE 20 26 11 14 1015.1 1014.2 0.0
14/09:00am 31.5 24.8 -1.3 12 15.6 SE 24 32 13 17 1015.0 1014.1 0.0
14/08:30am 30.1 23.9 -0.3 14 14.6 SE 22 28 12 15 1015.2 1014.3 0.0
14/08:00am 27.4 23.7 2.5 20 12.3 SE 11 13 6 7 1015.2 1014.3 0.0
14/07:30am 24.8 21.1 2.3 23 10.9 SSE 11 15 6 8 1014.9 1014.0 0.0
14/07:00am 23.3 20.0 4.3 29 9.4 SE 11 15 6 8 1014.8 1013.9 0.0
14/06:30am 21.4 16.9 4.0 32 8.5 SE 17 19 9 10 1014.5 1013.6 0.0
14/06:00am 18.9 15.2 4.3 38 7.0 SSE 13 15 7 8 1014.1 1013.2 0.0
14/05:30am 22.8 19.5 4.3 30 9.2 S 11 11 6 6 1013.6 1012.7 0.0
14/05:00am 21.7 18.7 4.3 32 8.5 SSE 9 9 5 5 1013.3 1012.4 0.0
14/04:30am 23.8 20.7 3.7 27 9.9 SSW 9 11 5 6 1012.9 1012.0 0.0
14/04:00am 24.3 19.6 3.0 25 10.4 SW 17 20 9 11 1012.8 1011.9 0.0
14/03:30am 23.0 17.7 3.0 27 9.7 SW 20 20 11 11 1012.5 1011.6 0.0
14/03:00am 23.5 20.4 3.4 27 9.8 SW 9 11 5 6 1013.1 1012.2 0.0
14/02:30am 24.0 20.8 3.3 26 10.1 WSW 9 11 5 6 1013.4 1012.5 0.0
14/02:00am 25.1 23.7 3.7 25 10.6 CALM 0 6 0 3 1013.7 1012.8 0.0
14/01:30am 23.3 19.4 3.3 27 9.7 SW 13 15 7 8 1013.8 1012.9 0.0
14/01:00am 22.8 19.9 2.8 27 9.6 S 7 9 4 5 1014.0 1013.1 0.0
14/12:30am 25.3 20.2 3.9 25 10.7 WSW 20 24 11 13 1014.0 1013.1 0.0
14/12:00am 23.9 20.6 4.3 28 9.8 SW 11 13 6 7 1014.4 1013.5 0.0
 
Date/Time
WST
Temp
°C
App
Temp
°C
Dew
Point
Rel
Hum
%
Delta-T
°C
Wind Press
QNH
hPa
Press
MSL
hPa
Rain
since 9 am
mm
Dir
 
Spd
km/h
Gust
km/h
Spd
kts
Gust
kts
13/11:30pm 24.8 21.6 5.1 28 10.0 WSW 11 13 6 7 1014.5 1013.6 0.0
13/11:00pm 25.8 20.8 3.7 24 11.0 W 19 22 10 12 1014.6 1013.7 0.0
13/10:30pm 25.8 20.6 2.5 22 11.4 W 19 20 10 11 1014.7 1013.8 0.0
13/10:00pm 26.0 20.6 2.7 22 11.4 W 20 22 11 12 1014.8 1013.9 0.0
13/09:30pm 26.9 21.3 -0.2 17 12.7 W 19 24 10 13 1015.0 1014.1 0.0
13/09:00pm 27.4 22.1 -0.6 16 13.1 W 17 20 9 11 1015.1 1014.2 0.0
13/08:30pm 28.0 23.0 -1.0 15 13.5 W 15 19 8 10 1014.9 1014.0 0.0
13/08:00pm 27.7 23.3 0.5 17 13.0 WNW 13 17 7 9 1014.7 1013.8 0.0
13/07:30pm 29.8 25.6 -3.8 11 15.1 SSE 9 11 5 6 1014.3 1013.4 0.0
13/07:00pm 30.3 25.9 -2.2 12 15.1 S 11 11 6 6 1014.1 1013.2 0.0
13/06:30pm 30.9 26.6 -1.8 12 15.4 S 11 11 6 6 1013.8 1012.9 0.0
13/06:00pm 31.8 27.4 -2.3 11 16.0 SE 11 13 6 7 1013.5 1012.6 0.0
13/05:30pm 34.2 30.5 -3.2 9 17.6 SSW 7 9 4 5 1013.3 1012.4 0.0
13/05:00pm 35.3 30.7 -3.9 8 18.4 S 11 19 6 10 1013.2 1012.3 0.0
13/04:30pm 35.5 30.8 -5.5 7 18.7 SSE 11 19 6 10 1013.2 1012.3 0.0
13/04:00pm 36.0 31.5 -3.4 8 18.7 SE 11 20 6 11 1013.0 1012.1 0.0
13/03:30pm 36.3 32.2 -3.2 8 18.8 SSE 9 15 5 8 1013.0 1012.1 0.0
13/03:00pm 36.3 32.2 -3.2 8 18.8 SE 9 19 5 10 1013.1 1012.2 0.0
13/02:30pm 36.3 30.7 -3.2 8 18.8 SW 17 28 9 15 1013.4 1012.5 0.0
13/02:00pm 36.7 31.5 -2.9 8 19.0 S 15 26 8 14 1013.6 1012.7 0.0
13/01:30pm 36.2 32.5 -3.3 8 18.8 E 7 17 4 9 1014.0 1013.1 0.0
13/01:00pm 36.1 30.8 -3.3 8 18.7 SSW 15 26 8 14 1014.4 1013.5 0.0
13/12:30pm 35.5 30.6 -3.8 8 18.5 ENE 13 22 7 12 1014.8 1013.9 0.0
13/12:00pm 34.8 29.8 -4.3 8 18.1 E 13 20 7 11 1015.4 1014.5 0.0
13/11:30am 34.6 30.3 -4.4 8 18.0 N 9 11 5 6 1015.9 1015.0 0.0
13/11:00am 34.6 28.3 -4.4 8 18.0 ENE 20 28 11 15 1016.4 1015.6 0.0
13/10:30am 34.2 29.2 -4.7 8 17.8 E 13 20 7 11 1016.9 1016.0 0.0
13/10:00am 33.4 28.3 -5.3 8 17.4 E 13 20 7 11 1017.4 1016.5 0.0
13/09:30am 32.8 28.4 -2.8 10 16.7 SSE 11 17 6 9 1017.6 1016.7 0.0
13/09:00am 31.7 27.5 -1.2 12 15.7 SSE 11 13 6 7 1017.6 1016.7 0.0
13/08:30am 29.2 25.0 1.7 17 13.6 SE 13 17 7 9 1017.5 1016.6 0.0
13/08:00am 28.1 24.3 3.7 21 12.3 S 13 19 7 10 1017.4 1016.5 0.0
13/07:30am 26.0 22.8 3.3 23 11.3 SSE 9 11 5 6 1017.2 1016.3 0.0
13/07:00am 22.4 19.0 4.0 30 9.0 SE 11 13 6 7 1016.9 1016.0 0.0
13/06:30am 20.0 15.5 2.4 31 8.2 SSE 15 17 8 9 1016.6 1015.8 0.0
13/06:00am 19.5 15.0 2.4 32 8.0 SSE 15 17 8 9 1016.3 1015.5 0.0
13/05:30am 20.8 15.9 2.1 29 8.7 S 17 19 9 10 1015.9 1015.0 0.0
13/05:00am 22.0 18.3 2.2 27 9.4 SSE 11 15 6 8 1015.7 1014.8 0.0
13/04:30am 21.5 17.0 2.2 28 9.1 S 15 17 8 9 1015.6 1014.7 0.0
13/04:00am 21.6 17.5 2.3 28 9.1 SSE 13 15 7 8 1015.5 1014.6 0.0
13/03:30am 22.2 17.7 2.3 27 9.4 S 15 17 8 9 1015.4 1014.5 0.0
13/03:00am 21.5 16.6 2.2 28 9.1 S 17 19 9 10 1015.4 1014.5 0.0
13/02:30am 21.9 17.4 2.1 27 9.3 SSE 15 17 8 9 1015.4 1014.5 0.0
13/02:00am 23.5 18.9 1.8 24 10.3 S 15 17 8 9 1015.5 1014.6 0.0
13/01:30am 24.3 20.8 1.2 22 10.9 SSW 9 11 5 6 1015.5 1014.6 0.0
13/01:00am 24.4 21.3 1.3 22 10.9 SSW 7 9 4 5 1015.6 1014.7 0.0
13/12:30am 24.5 21.1 2.0 23 10.8 SW 9 13 5 7 1015.8 1014.9 0.0
13/12:00am 25.1 21.0 2.5 23 11.0 S 13 15 7 8 1016.1 1015.3 0.0
 
Date/Time
WST
Temp
°C
App
Temp
°C
Dew
Point
Rel
Hum
%
Delta-T
°C
Wind Press
QNH
hPa
Press
MSL
hPa
Rain
since 9 am
mm
Dir
 
Spd
km/h
Gust
km/h
Spd
kts
Gust
kts
12/11:30pm 25.7 20.9 2.4 22 11.4 SW 17 20 9 11 1016.3 1015.5 0.0
12/11:00pm 25.5 20.9 3.5 24 10.9 SW 17 20 9 11 1016.4 1015.6 0.0
12/10:30pm 25.6 21.3 3.5 24 11.0 WSW 15 20 8 11 1016.4 1015.6 0.0
12/10:00pm 25.0 21.7 4.7 27 10.3 WSW 11 15 6 8 1016.8 1015.9 0.0
12/09:30pm 25.8 21.3 4.3 25 10.9 W 17 20 9 11 1016.6 1015.8 0.0
12/09:00pm 24.7 19.8 2.2 23 10.8 W 17 20 9 11 1016.6 1015.8 0.0
12/08:30pm 24.9 20.4 2.4 23 10.9 W 15 17 8 9 1016.6 1015.8 0.0
12/08:00pm 25.9 22.6 2.6 22 11.4 WNW 9 13 5 7 1016.5 1015.7 0.0
12/07:30pm 27.2 23.4 1.6 19 12.4 W 11 13 6 7 1016.2 1015.4 0.0
12/07:00pm 29.2 24.3 1.7 17 13.5 NW 17 20 9 11 1015.7 1014.8 0.0
12/06:30pm 30.2 26.6 0.7 15 14.4 WNW 9 13 5 7 1015.3 1014.4 0.0
12/06:00pm 31.9 26.9 -1.0 12 15.8 WNW 15 22 8 12 1015.0 1014.1 0.0
12/05:30pm 34.2 29.1 -1.7 10 17.3 S 15 20 8 11 1014.4 1013.5 0.0
12/05:00pm 35.4 30.3 -2.3 9 18.1 SW 15 22 8 12 1014.3 1013.4 0.0
12/04:30pm 35.7 31.0 -2.0 9 18.2 S 13 20 7 11 1014.2 1013.3 0.0
12/04:00pm 36.3 32.0 -1.6 9 18.5 NW 11 15 6 8 1014.0 1013.1 0.0
12/03:30pm 35.8 31.8 -2.0 9 18.3 SW 9 17 5 9 1014.1 1013.2 0.0
12/03:00pm 36.4 32.5 -1.5 9 18.6 SW 9 17 5 9 1014.2 1013.3 0.0
12/02:30pm 36.5 32.8 -3.0 8 18.9 W 7 15 4 8 1014.3 1013.4 0.0
12/02:00pm 35.6 31.4 -3.7 8 18.5 ESE 9 20 5 11 1014.6 1013.7 0.0
12/01:30pm 35.8 31.1 -2.0 9 18.3 SSE 13 22 7 12 1015.1 1014.2 0.0
12/01:00pm 35.5 30.0 -2.2 9 18.1 E 17 24 9 13 1015.6 1014.7 0.0
12/12:30pm 34.8 30.4 -2.7 9 17.8 SSE 11 24 6 13 1016.0 1015.2 0.0
12/12:00pm 34.5 30.0 -2.9 9 17.7 ENE 11 19 6 10 1016.6 1015.8 0.0
12/11:30am 34.8 28.8 -1.3 10 17.6 E 20 37 11 20 1017.2 1016.3 0.0
12/11:00am 33.8 28.3 -2.0 10 17.1 ESE 17 22 9 12 1017.8 1016.9 0.0
12/10:30am 33.1 27.5 -2.6 10 16.8 ENE 17 24 9 13 1018.2 1017.3 0.0
12/10:00am 32.8 26.6 -2.8 10 16.6 ENE 20 24 11 13 1018.4 1017.5 0.0

Other Formats:

Comma delimited format used in spreadsheet applications
http://www.bom.gov.au/fwo/IDW60801/IDW60801.99311.axf

JavaScript Object Notation format (JSON) in row-major order
http://www.bom.gov.au/fwo/IDW60801/IDW60801.99311.json